sensor_id;sensor_type;location;lat;lon;timestamp;P1;durP1;ratioP1;P2;durP2;ratioP2
36551;SDS011;22559;54.176;12.102;2022-12-07T00:01:08;4.60;;;4.10;;
36551;SDS011;22559;54.176;12.102;2022-12-07T00:03:42;4.70;;;4.30;;
36551;SDS011;22559;54.176;12.102;2022-12-07T00:06:10;5.20;;;4.70;;
36551;SDS011;22559;54.176;12.102;2022-12-07T00:08:37;7.63;;;4.97;;
36551;SDS011;22559;54.176;12.102;2022-12-07T00:11:03;4.63;;;4.23;;
36551;SDS011;22559;54.176;12.102;2022-12-07T00:13:31;4.87;;;4.30;;
36551;SDS011;22559;54.176;12.102;2022-12-07T00:16:04;4.70;;;4.30;;
36551;SDS011;22559;54.176;12.102;2022-12-07T00:18:38;5.33;;;4.40;;
36551;SDS011;22559;54.176;12.102;2022-12-07T00:21:09;6.00;;;4.57;;
36551;SDS011;22559;54.176;12.102;2022-12-07T00:23:35;5.47;;;4.20;;
36551;SDS011;22559;54.176;12.102;2022-12-07T00:26:11;5.53;;;4.73;;
36551;SDS011;22559;54.176;12.102;2022-12-07T00:28:37;8.00;;;5.03;;
36551;SDS011;22559;54.176;12.102;2022-12-07T00:31:04;7.63;;;4.87;;
36551;SDS011;22559;54.176;12.102;2022-12-07T00:33:34;5.87;;;4.67;;
36551;SDS011;22559;54.176;12.102;2022-12-07T00:36:01;6.70;;;4.53;;
36551;SDS011;22559;54.176;12.102;2022-12-07T00:38:29;5.67;;;4.20;;
36551;SDS011;22559;54.176;12.102;2022-12-07T00:40:59;6.30;;;5.13;;
36551;SDS011;22559;54.176;12.102;2022-12-07T00:43:27;7.83;;;5.57;;
36551;SDS011;22559;54.176;12.102;2022-12-07T00:45:53;5.97;;;5.17;;
36551;SDS011;22559;54.176;12.102;2022-12-07T00:48:19;7.37;;;5.60;;
36551;SDS011;22559;54.176;12.102;2022-12-07T00:50:46;8.00;;;5.90;;
36551;SDS011;22559;54.176;12.102;2022-12-07T00:53:12;7.83;;;5.87;;
36551;SDS011;22559;54.176;12.102;2022-12-07T00:55:38;8.53;;;6.40;;
36551;SDS011;22559;54.176;12.102;2022-12-07T00:58:04;9.63;;;7.07;;
36551;SDS011;22559;54.176;12.102;2022-12-07T01:00:30;8.57;;;6.40;;
36551;SDS011;22559;54.176;12.102;2022-12-07T01:02:56;8.83;;;6.47;;
36551;SDS011;22559;54.176;12.102;2022-12-07T01:05:21;9.30;;;6.57;;
36551;SDS011;22559;54.176;12.102;2022-12-07T01:07:47;9.60;;;6.27;;
36551;SDS011;22559;54.176;12.102;2022-12-07T01:10:13;8.90;;;5.90;;
36551;SDS011;22559;54.176;12.102;2022-12-07T01:12:39;9.13;;;6.97;;
36551;SDS011;22559;54.176;12.102;2022-12-07T01:15:05;8.17;;;6.33;;
36551;SDS011;22559;54.176;12.102;2022-12-07T01:17:31;9.43;;;6.27;;
36551;SDS011;22559;54.176;12.102;2022-12-07T01:19:57;8.53;;;6.20;;
36551;SDS011;22559;54.176;12.102;2022-12-07T01:22:23;10.93;;;7.50;;
36551;SDS011;22559;54.176;12.102;2022-12-07T01:24:48;9.77;;;6.50;;
36551;SDS011;22559;54.176;12.102;2022-12-07T01:27:14;11.27;;;7.43;;
36551;SDS011;22559;54.176;12.102;2022-12-07T01:29:40;10.33;;;7.17;;
36551;SDS011;22559;54.176;12.102;2022-12-07T01:32:06;11.50;;;7.77;;
36551;SDS011;22559;54.176;12.102;2022-12-07T01:34:31;12.23;;;7.83;;
36551;SDS011;22559;54.176;12.102;2022-12-07T01:36:57;12.93;;;7.77;;
36551;SDS011;22559;54.176;12.102;2022-12-07T01:39:23;10.70;;;7.83;;
36551;SDS011;22559;54.176;12.102;2022-12-07T01:41:49;11.07;;;8.03;;
36551;SDS011;22559;54.176;12.102;2022-12-07T01:46:46;13.17;;;8.50;;
36551;SDS011;22559;54.176;12.102;2022-12-07T01:49:50;12.30;;;8.33;;
36551;SDS011;22559;54.176;12.102;2022-12-07T01:52:21;14.07;;;8.90;;
36551;SDS011;22559;54.176;12.102;2022-12-07T01:54:52;12.20;;;8.67;;
36551;SDS011;22559;54.176;12.102;2022-12-07T01:57:23;14.23;;;8.20;;
36551;SDS011;22559;54.176;12.102;2022-12-07T01:59:49;12.20;;;8.60;;
36551;SDS011;22559;54.176;12.102;2022-12-07T02:02:22;12.00;;;7.90;;
36551;SDS011;22559;54.176;12.102;2022-12-07T02:04:51;11.90;;;8.67;;
36551;SDS011;22559;54.176;12.102;2022-12-07T02:07:19;15.40;;;8.93;;
36551;SDS011;22559;54.176;12.102;2022-12-07T02:09:46;12.70;;;7.90;;
36551;SDS011;22559;54.176;12.102;2022-12-07T02:12:11;11.17;;;7.70;;
36551;SDS011;22559;54.176;12.102;2022-12-07T02:14:37;13.13;;;7.87;;
36551;SDS011;22559;54.176;12.102;2022-12-07T02:22:40;12.20;;;7.97;;
36551;SDS011;22559;54.176;12.102;2022-12-07T02:30:48;10.10;;;7.00;;
36551;SDS011;22559;54.176;12.102;2022-12-07T02:33:31;11.63;;;7.33;;
36551;SDS011;22559;54.176;12.102;2022-12-07T02:36:04;9.83;;;6.93;;
36551;SDS011;22559;54.176;12.102;2022-12-07T02:38:40;9.47;;;6.77;;
36551;SDS011;22559;54.176;12.102;2022-12-07T02:41:39;10.80;;;7.17;;
36551;SDS011;22559;54.176;12.102;2022-12-07T02:44:10;10.10;;;7.43;;
36551;SDS011;22559;54.176;12.102;2022-12-07T02:46:42;11.53;;;7.13;;
36551;SDS011;22559;54.176;12.102;2022-12-07T02:49:14;9.37;;;6.83;;
36551;SDS011;22559;54.176;12.102;2022-12-07T02:51:41;13.13;;;7.93;;
36551;SDS011;22559;54.176;12.102;2022-12-07T02:54:11;12.00;;;8.07;;
36551;SDS011;22559;54.176;12.102;2022-12-07T02:56:43;14.83;;;8.47;;
36551;SDS011;22559;54.176;12.102;2022-12-07T03:03:20;12.70;;;8.07;;
36551;SDS011;22559;54.176;12.102;2022-12-07T03:18:25;15.47;;;8.27;;
36551;SDS011;22559;54.176;12.102;2022-12-07T03:20:57;18.80;;;8.83;;
36551;SDS011;22559;54.176;12.102;2022-12-07T03:23:27;16.93;;;8.90;;
36551;SDS011;22559;54.176;12.102;2022-12-07T03:25:57;17.10;;;8.93;;
36551;SDS011;22559;54.176;12.102;2022-12-07T03:28:26;15.00;;;8.53;;
36551;SDS011;22559;54.176;12.102;2022-12-07T03:31:03;19.13;;;9.60;;
36551;SDS011;22559;54.176;12.102;2022-12-07T03:33:39;16.90;;;9.07;;
36551;SDS011;22559;54.176;12.102;2022-12-07T03:37:12;20.77;;;10.20;;
36551;SDS011;22559;54.176;12.102;2022-12-07T03:39:24;18.77;;;9.07;;
36551;SDS011;22559;54.176;12.102;2022-12-07T03:41:56;17.27;;;9.13;;
36551;SDS011;22559;54.176;12.102;2022-12-07T03:44:25;17.30;;;9.27;;
36551;SDS011;22559;54.176;12.102;2022-12-07T03:49:46;19.17;;;9.70;;
36551;SDS011;22559;54.176;12.102;2022-12-07T03:52:39;22.17;;;10.93;;
36551;SDS011;22559;54.176;12.102;2022-12-07T03:55:11;21.57;;;10.20;;
36551;SDS011;22559;54.176;12.102;2022-12-07T03:57:43;18.43;;;9.83;;
36551;SDS011;22559;54.176;12.102;2022-12-07T04:00:10;17.63;;;9.60;;
36551;SDS011;22559;54.176;12.102;2022-12-07T04:02:37;21.23;;;11.00;;
36551;SDS011;22559;54.176;12.102;2022-12-07T04:05:02;19.70;;;10.13;;
36551;SDS011;22559;54.176;12.102;2022-12-07T04:07:29;22.73;;;10.80;;
36551;SDS011;22559;54.176;12.102;2022-12-07T04:09:54;25.13;;;10.33;;
36551;SDS011;22559;54.176;12.102;2022-12-07T04:12:20;21.20;;;10.73;;
36551;SDS011;22559;54.176;12.102;2022-12-07T04:14:47;24.20;;;11.23;;
36551;SDS011;22559;54.176;12.102;2022-12-07T04:17:12;26.27;;;12.03;;
36551;SDS011;22559;54.176;12.102;2022-12-07T04:19:38;25.37;;;11.50;;
36551;SDS011;22559;54.176;12.102;2022-12-07T04:22:04;22.43;;;11.33;;
36551;SDS011;22559;54.176;12.102;2022-12-07T04:24:30;26.30;;;11.90;;
36551;SDS011;22559;54.176;12.102;2022-12-07T04:26:56;23.67;;;12.10;;
36551;SDS011;22559;54.176;12.102;2022-12-07T04:29:22;19.90;;;10.67;;
36551;SDS011;22559;54.176;12.102;2022-12-07T04:31:48;20.50;;;10.23;;
36551;SDS011;22559;54.176;12.102;2022-12-07T04:34:14;21.97;;;10.70;;
36551;SDS011;22559;54.176;12.102;2022-12-07T04:36:40;19.90;;;10.90;;
36551;SDS011;22559;54.176;12.102;2022-12-07T04:39:07;22.53;;;11.60;;
36551;SDS011;22559;54.176;12.102;2022-12-07T04:41:38;24.40;;;12.50;;
36551;SDS011;22559;54.176;12.102;2022-12-07T04:44:04;22.97;;;10.70;;
36551;SDS011;22559;54.176;12.102;2022-12-07T04:46:32;23.27;;;11.00;;
36551;SDS011;22559;54.176;12.102;2022-12-07T04:48:58;25.93;;;10.57;;
36551;SDS011;22559;54.176;12.102;2022-12-07T04:51:25;18.67;;;10.00;;
36551;SDS011;22559;54.176;12.102;2022-12-07T04:53:53;24.00;;;10.60;;
36551;SDS011;22559;54.176;12.102;2022-12-07T04:56:18;23.10;;;10.70;;
36551;SDS011;22559;54.176;12.102;2022-12-07T04:58:45;21.83;;;10.93;;
36551;SDS011;22559;54.176;12.102;2022-12-07T05:01:12;20.97;;;10.30;;
36551;SDS011;22559;54.176;12.102;2022-12-07T05:03:38;22.60;;;12.03;;
36551;SDS011;22559;54.176;12.102;2022-12-07T05:06:05;21.97;;;11.90;;
36551;SDS011;22559;54.176;12.102;2022-12-07T05:08:34;22.57;;;12.77;;
36551;SDS011;22559;54.176;12.102;2022-12-07T05:11:00;23.50;;;11.00;;
36551;SDS011;22559;54.176;12.102;2022-12-07T05:13:26;19.67;;;10.67;;
36551;SDS011;22559;54.176;12.102;2022-12-07T05:15:52;23.87;;;11.53;;
36551;SDS011;22559;54.176;12.102;2022-12-07T05:18:18;21.17;;;10.97;;
36551;SDS011;22559;54.176;12.102;2022-12-07T05:20:44;19.80;;;11.27;;
36551;SDS011;22559;54.176;12.102;2022-12-07T05:23:10;25.80;;;11.30;;
36551;SDS011;22559;54.176;12.102;2022-12-07T05:25:36;21.63;;;10.80;;
36551;SDS011;22559;54.176;12.102;2022-12-07T05:28:02;21.57;;;10.83;;
36551;SDS011;22559;54.176;12.102;2022-12-07T05:30:29;20.90;;;10.83;;
36551;SDS011;22559;54.176;12.102;2022-12-07T05:32:56;23.60;;;11.37;;
36551;SDS011;22559;54.176;12.102;2022-12-07T05:35:22;20.53;;;11.20;;
36551;SDS011;22559;54.176;12.102;2022-12-07T05:37:48;22.17;;;10.50;;
36551;SDS011;22559;54.176;12.102;2022-12-07T05:40:14;22.00;;;10.87;;
36551;SDS011;22559;54.176;12.102;2022-12-07T05:42:40;23.67;;;10.83;;
36551;SDS011;22559;54.176;12.102;2022-12-07T05:45:06;22.13;;;10.13;;
36551;SDS011;22559;54.176;12.102;2022-12-07T05:47:33;19.93;;;10.70;;
36551;SDS011;22559;54.176;12.102;2022-12-07T05:49:58;21.93;;;10.73;;
36551;SDS011;22559;54.176;12.102;2022-12-07T05:52:24;27.37;;;11.90;;
36551;SDS011;22559;54.176;12.102;2022-12-07T05:54:50;28.37;;;12.47;;
36551;SDS011;22559;54.176;12.102;2022-12-07T05:57:17;24.13;;;11.17;;
36551;SDS011;22559;54.176;12.102;2022-12-07T05:59:43;23.50;;;11.63;;
36551;SDS011;22559;54.176;12.102;2022-12-07T06:02:10;27.67;;;12.67;;
36551;SDS011;22559;54.176;12.102;2022-12-07T06:04:39;12.33;;;7.40;;
36551;SDS011;22559;54.176;12.102;2022-12-07T06:07:07;12.90;;;6.93;;
36551;SDS011;22559;54.176;12.102;2022-12-07T06:09:33;10.57;;;5.63;;
36551;SDS011;22559;54.176;12.102;2022-12-07T06:11:59;11.17;;;5.73;;
36551;SDS011;22559;54.176;12.102;2022-12-07T06:14:43;7.80;;;5.90;;
36551;SDS011;22559;54.176;12.102;2022-12-07T06:17:09;9.03;;;5.57;;
36551;SDS011;22559;54.176;12.102;2022-12-07T06:19:35;8.43;;;5.77;;
36551;SDS011;22559;54.176;12.102;2022-12-07T06:22:01;10.77;;;5.53;;
36551;SDS011;22559;54.176;12.102;2022-12-07T06:24:29;8.13;;;5.67;;
36551;SDS011;22559;54.176;12.102;2022-12-07T06:26:55;9.40;;;5.60;;
36551;SDS011;22559;54.176;12.102;2022-12-07T06:29:21;9.83;;;6.00;;
36551;SDS011;22559;54.176;12.102;2022-12-07T06:31:47;8.93;;;5.40;;
36551;SDS011;22559;54.176;12.102;2022-12-07T06:34:13;6.90;;;5.33;;
36551;SDS011;22559;54.176;12.102;2022-12-07T06:36:41;7.53;;;5.57;;
36551;SDS011;22559;54.176;12.102;2022-12-07T06:39:07;6.77;;;5.43;;
36551;SDS011;22559;54.176;12.102;2022-12-07T06:41:34;6.87;;;5.53;;
36551;SDS011;22559;54.176;12.102;2022-12-07T06:44:01;7.63;;;5.13;;
36551;SDS011;22559;54.176;12.102;2022-12-07T06:46:27;12.80;;;5.27;;
36551;SDS011;22559;54.176;12.102;2022-12-07T06:48:53;7.60;;;4.87;;
36551;SDS011;22559;54.176;12.102;2022-12-07T06:51:19;7.73;;;5.23;;
36551;SDS011;22559;54.176;12.102;2022-12-07T06:53:44;7.83;;;5.33;;
36551;SDS011;22559;54.176;12.102;2022-12-07T06:56:10;8.53;;;6.03;;
36551;SDS011;22559;54.176;12.102;2022-12-07T06:58:35;7.50;;;5.40;;
36551;SDS011;22559;54.176;12.102;2022-12-07T07:01:01;8.30;;;5.97;;
36551;SDS011;22559;54.176;12.102;2022-12-07T07:03:28;8.17;;;5.80;;
36551;SDS011;22559;54.176;12.102;2022-12-07T07:05:53;9.53;;;5.93;;
36551;SDS011;22559;54.176;12.102;2022-12-07T07:08:19;9.27;;;6.63;;
36551;SDS011;22559;54.176;12.102;2022-12-07T07:10:45;10.27;;;6.93;;
36551;SDS011;22559;54.176;12.102;2022-12-07T07:13:10;11.10;;;7.10;;
36551;SDS011;22559;54.176;12.102;2022-12-07T07:15:37;14.93;;;7.70;;
36551;SDS011;22559;54.176;12.102;2022-12-07T07:18:03;14.23;;;6.93;;
36551;SDS011;22559;54.176;12.102;2022-12-07T07:20:29;10.33;;;7.80;;
36551;SDS011;22559;54.176;12.102;2022-12-07T07:22:55;11.77;;;7.30;;
36551;SDS011;22559;54.176;12.102;2022-12-07T07:25:21;13.63;;;7.03;;
36551;SDS011;22559;54.176;12.102;2022-12-07T07:27:47;16.13;;;10.17;;
36551;SDS011;22559;54.176;12.102;2022-12-07T07:30:13;17.13;;;10.90;;
36551;SDS011;22559;54.176;12.102;2022-12-07T07:32:39;11.90;;;7.87;;
36551;SDS011;22559;54.176;12.102;2022-12-07T07:35:05;12.40;;;7.50;;
36551;SDS011;22559;54.176;12.102;2022-12-07T07:37:31;12.70;;;7.83;;
36551;SDS011;22559;54.176;12.102;2022-12-07T07:39:56;10.03;;;7.33;;
36551;SDS011;22559;54.176;12.102;2022-12-07T07:42:22;12.77;;;7.70;;
36551;SDS011;22559;54.176;12.102;2022-12-07T07:44:48;3.50;;;3.20;;
36551;SDS011;22559;54.176;12.102;2022-12-07T07:47:13;5.53;;;3.60;;
36551;SDS011;22559;54.176;12.102;2022-12-07T07:49:39;3.90;;;3.60;;
36551;SDS011;22559;54.176;12.102;2022-12-07T07:52:05;6.23;;;3.23;;
36551;SDS011;22559;54.176;12.102;2022-12-07T07:54:31;5.83;;;3.80;;
36551;SDS011;22559;54.176;12.102;2022-12-07T07:56:56;9.93;;;7.10;;
36551;SDS011;22559;54.176;12.102;2022-12-07T07:59:22;37.13;;;18.00;;
36551;SDS011;22559;54.176;12.102;2022-12-07T08:01:48;3.63;;;2.73;;
36551;SDS011;22559;54.176;12.102;2022-12-07T08:04:14;2.50;;;2.30;;
36551;SDS011;22559;54.176;12.102;2022-12-07T08:06:39;2.70;;;2.50;;
36551;SDS011;22559;54.176;12.102;2022-12-07T08:09:07;3.03;;;2.73;;
36551;SDS011;22559;54.176;12.102;2022-12-07T08:11:33;3.50;;;2.20;;
36551;SDS011;22559;54.176;12.102;2022-12-07T08:13:59;2.20;;;2.10;;
36551;SDS011;22559;54.176;12.102;2022-12-07T08:16:25;2.77;;;2.57;;
36551;SDS011;22559;54.176;12.102;2022-12-07T08:18:50;4.47;;;2.97;;
36551;SDS011;22559;54.176;12.102;2022-12-07T08:21:16;2.40;;;2.30;;
36551;SDS011;22559;54.176;12.102;2022-12-07T08:23:42;2.53;;;2.37;;
36551;SDS011;22559;54.176;12.102;2022-12-07T08:26:09;2.60;;;2.50;;
36551;SDS011;22559;54.176;12.102;2022-12-07T08:28:36;2.40;;;2.30;;
36551;SDS011;22559;54.176;12.102;2022-12-07T08:31:03;2.53;;;2.27;;
36551;SDS011;22559;54.176;12.102;2022-12-07T08:33:35;2.50;;;1.90;;
36551;SDS011;22559;54.176;12.102;2022-12-07T08:36:02;1.97;;;1.87;;
36551;SDS011;22559;54.176;12.102;2022-12-07T08:38:29;2.00;;;1.90;;
36551;SDS011;22559;54.176;12.102;2022-12-07T08:40:55;4.80;;;2.43;;
36551;SDS011;22559;54.176;12.102;2022-12-07T08:43:21;2.53;;;2.33;;
36551;SDS011;22559;54.176;12.102;2022-12-07T08:45:47;2.47;;;2.20;;
36551;SDS011;22559;54.176;12.102;2022-12-07T08:48:21;2.93;;;2.70;;
36551;SDS011;22559;54.176;12.102;2022-12-07T08:50:49;2.07;;;1.97;;
36551;SDS011;22559;54.176;12.102;2022-12-07T08:53:18;2.83;;;2.30;;
36551;SDS011;22559;54.176;12.102;2022-12-07T08:55:44;2.50;;;2.30;;
36551;SDS011;22559;54.176;12.102;2022-12-07T08:58:11;4.77;;;2.43;;
36551;SDS011;22559;54.176;12.102;2022-12-07T09:00:37;6.23;;;4.10;;
36551;SDS011;22559;54.176;12.102;2022-12-07T09:03:02;6.77;;;5.10;;
36551;SDS011;22559;54.176;12.102;2022-12-07T09:05:28;4.30;;;3.90;;
36551;SDS011;22559;54.176;12.102;2022-12-07T09:07:56;7.30;;;4.17;;
36551;SDS011;22559;54.176;12.102;2022-12-07T09:10:25;3.73;;;3.43;;
36551;SDS011;22559;54.176;12.102;2022-12-07T09:12:51;6.97;;;4.53;;
36551;SDS011;22559;54.176;12.102;2022-12-07T09:15:16;4.97;;;3.80;;
36551;SDS011;22559;54.176;12.102;2022-12-07T09:17:42;7.57;;;4.27;;
36551;SDS011;22559;54.176;12.102;2022-12-07T09:20:08;6.90;;;4.63;;
36551;SDS011;22559;54.176;12.102;2022-12-07T09:22:34;8.40;;;5.13;;
36551;SDS011;22559;54.176;12.102;2022-12-07T09:25:00;6.10;;;4.50;;
36551;SDS011;22559;54.176;12.102;2022-12-07T09:27:26;6.50;;;4.57;;
36551;SDS011;22559;54.176;12.102;2022-12-07T09:29:52;9.10;;;3.70;;
36551;SDS011;22559;54.176;12.102;2022-12-07T09:32:18;7.20;;;3.70;;
36551;SDS011;22559;54.176;12.102;2022-12-07T09:34:43;5.37;;;3.77;;
36551;SDS011;22559;54.176;12.102;2022-12-07T09:37:09;7.37;;;4.67;;
36551;SDS011;22559;54.176;12.102;2022-12-07T09:39:37;10.40;;;4.40;;
36551;SDS011;22559;54.176;12.102;2022-12-07T09:42:03;7.13;;;4.17;;
36551;SDS011;22559;54.176;12.102;2022-12-07T09:44:31;6.77;;;3.90;;
36551;SDS011;22559;54.176;12.102;2022-12-07T09:46:56;7.43;;;4.40;;
36551;SDS011;22559;54.176;12.102;2022-12-07T09:49:24;5.87;;;3.63;;
36551;SDS011;22559;54.176;12.102;2022-12-07T09:52:03;7.13;;;4.60;;
36551;SDS011;22559;54.176;12.102;2022-12-07T09:54:50;4.63;;;2.53;;
36551;SDS011;22559;54.176;12.102;2022-12-07T09:57:16;3.47;;;2.80;;
36551;SDS011;22559;54.176;12.102;2022-12-07T09:59:45;3.00;;;2.20;;
36551;SDS011;22559;54.176;12.102;2022-12-07T10:02:22;4.30;;;2.03;;
36551;SDS011;22559;54.176;12.102;2022-12-07T10:04:48;4.17;;;2.30;;
36551;SDS011;22559;54.176;12.102;2022-12-07T10:07:14;3.13;;;2.03;;
36551;SDS011;22559;54.176;12.102;2022-12-07T10:09:40;2.30;;;2.20;;
36551;SDS011;22559;54.176;12.102;2022-12-07T10:14:35;3.90;;;2.27;;
36551;SDS011;22559;54.176;12.102;2022-12-07T10:17:17;6.83;;;2.50;;
36551;SDS011;22559;54.176;12.102;2022-12-07T10:19:51;5.97;;;2.30;;
36551;SDS011;22559;54.176;12.102;2022-12-07T10:22:17;2.83;;;2.10;;
36551;SDS011;22559;54.176;12.102;2022-12-07T10:24:43;3.40;;;1.90;;
36551;SDS011;22559;54.176;12.102;2022-12-07T10:29:51;1.70;;;1.60;;
36551;SDS011;22559;54.176;12.102;2022-12-07T10:34:43;5.70;;;1.60;;
36551;SDS011;22559;54.176;12.102;2022-12-07T10:42:18;1.23;;;1.17;;
36551;SDS011;22559;54.176;12.102;2022-12-07T10:44:46;1.10;;;1.10;;
36551;SDS011;22559;54.176;12.102;2022-12-07T10:47:31;2.93;;;1.37;;
36551;SDS011;22559;54.176;12.102;2022-12-07T10:58:36;1.53;;;1.40;;
36551;SDS011;22559;54.176;12.102;2022-12-07T11:12:34;3.53;;;1.17;;
36551;SDS011;22559;54.176;12.102;2022-12-07T11:29:21;1.20;;;1.20;;
36551;SDS011;22559;54.176;12.102;2022-12-07T11:37:13;1.50;;;1.40;;
36551;SDS011;22559;54.176;12.102;2022-12-07T11:39:48;1.80;;;1.20;;
36551;SDS011;22559;54.176;12.102;2022-12-07T11:42:25;2.10;;;2.00;;
36551;SDS011;22559;54.176;12.102;2022-12-07T11:44:53;3.60;;;1.63;;
36551;SDS011;22559;54.176;12.102;2022-12-07T11:52:53;2.03;;;1.23;;
36551;SDS011;22559;54.176;12.102;2022-12-07T11:58:13;4.30;;;3.50;;
36551;SDS011;22559;54.176;12.102;2022-12-07T12:00:44;3.87;;;1.30;;
36551;SDS011;22559;54.176;12.102;2022-12-07T12:03:11;2.20;;;1.70;;
36551;SDS011;22559;54.176;12.102;2022-12-07T12:05:45;4.33;;;1.40;;
36551;SDS011;22559;54.176;12.102;2022-12-07T12:08:21;3.07;;;1.33;;
36551;SDS011;22559;54.176;12.102;2022-12-07T12:22:16;1.70;;;1.60;;
36551;SDS011;22559;54.176;12.102;2022-12-07T12:24:45;2.50;;;1.77;;
36551;SDS011;22559;54.176;12.102;2022-12-07T12:27:26;3.10;;;1.60;;
36551;SDS011;22559;54.176;12.102;2022-12-07T12:29:57;2.10;;;1.40;;
36551;SDS011;22559;54.176;12.102;2022-12-07T12:37:46;1.33;;;1.33;;
36551;SDS011;22559;54.176;12.102;2022-12-07T12:43:02;4.87;;;3.07;;
36551;SDS011;22559;54.176;12.102;2022-12-07T12:47:59;1.30;;;1.20;;
36551;SDS011;22559;54.176;12.102;2022-12-07T12:50:33;2.03;;;1.43;;
36551;SDS011;22559;54.176;12.102;2022-12-07T12:53:02;3.07;;;1.67;;
36551;SDS011;22559;54.176;12.102;2022-12-07T12:55:52;1.47;;;1.37;;
36551;SDS011;22559;54.176;12.102;2022-12-07T12:58:35;4.07;;;1.40;;
36551;SDS011;22559;54.176;12.102;2022-12-07T13:04:02;2.77;;;1.70;;
36551;SDS011;22559;54.176;12.102;2022-12-07T13:06:39;1.57;;;1.40;;
36551;SDS011;22559;54.176;12.102;2022-12-07T13:09:15;2.47;;;1.50;;
36551;SDS011;22559;54.176;12.102;2022-12-07T13:11:48;4.00;;;1.60;;
36551;SDS011;22559;54.176;12.102;2022-12-07T13:17:06;1.27;;;1.17;;
36551;SDS011;22559;54.176;12.102;2022-12-07T13:25:05;2.93;;;1.20;;
36551;SDS011;22559;54.176;12.102;2022-12-07T13:27:37;2.27;;;1.60;;
36551;SDS011;22559;54.176;12.102;2022-12-07T13:30:12;3.80;;;1.37;;
36551;SDS011;22559;54.176;12.102;2022-12-07T13:32:41;2.53;;;1.27;;
36551;SDS011;22559;54.176;12.102;2022-12-07T13:35:50;3.53;;;1.30;;
36551;SDS011;22559;54.176;12.102;2022-12-07T13:37:58;2.33;;;1.20;;
36551;SDS011;22559;54.176;12.102;2022-12-07T13:40:26;4.70;;;1.37;;
36551;SDS011;22559;54.176;12.102;2022-12-07T13:42:58;1.13;;;1.13;;
36551;SDS011;22559;54.176;12.102;2022-12-07T13:45:30;2.67;;;1.40;;
36551;SDS011;22559;54.176;12.102;2022-12-07T13:48:29;1.27;;;1.20;;
36551;SDS011;22559;54.176;12.102;2022-12-07T13:51:00;1.37;;;1.27;;
36551;SDS011;22559;54.176;12.102;2022-12-07T13:53:28;2.67;;;1.30;;
36551;SDS011;22559;54.176;12.102;2022-12-07T13:55:58;3.93;;;1.60;;
36551;SDS011;22559;54.176;12.102;2022-12-07T13:58:25;1.60;;;1.50;;
36551;SDS011;22559;54.176;12.102;2022-12-07T14:00:58;1.53;;;1.40;;
36551;SDS011;22559;54.176;12.102;2022-12-07T14:03:29;4.70;;;1.73;;
36551;SDS011;22559;54.176;12.102;2022-12-07T14:06:04;1.80;;;1.70;;
36551;SDS011;22559;54.176;12.102;2022-12-07T14:08:32;1.60;;;1.50;;
36551;SDS011;22559;54.176;12.102;2022-12-07T14:10:58;3.20;;;1.77;;
36551;SDS011;22559;54.176;12.102;2022-12-07T14:13:32;4.83;;;1.47;;
36551;SDS011;22559;54.176;12.102;2022-12-07T14:16:00;2.03;;;1.50;;
36551;SDS011;22559;54.176;12.102;2022-12-07T14:18:36;1.87;;;1.43;;
36551;SDS011;22559;54.176;12.102;2022-12-07T14:23:34;2.17;;;1.60;;
36551;SDS011;22559;54.176;12.102;2022-12-07T14:26:14;1.43;;;1.37;;
36551;SDS011;22559;54.176;12.102;2022-12-07T14:28:43;1.40;;;1.30;;
36551;SDS011;22559;54.176;12.102;2022-12-07T14:31:13;1.90;;;1.53;;
36551;SDS011;22559;54.176;12.102;2022-12-07T14:33:41;1.23;;;1.23;;
36551;SDS011;22559;54.176;12.102;2022-12-07T14:36:13;1.30;;;1.30;;
36551;SDS011;22559;54.176;12.102;2022-12-07T14:38:40;1.47;;;1.47;;
36551;SDS011;22559;54.176;12.102;2022-12-07T14:41:06;3.40;;;1.50;;
36551;SDS011;22559;54.176;12.102;2022-12-07T14:43:58;1.80;;;1.70;;
36551;SDS011;22559;54.176;12.102;2022-12-07T14:46:24;1.83;;;1.33;;
36551;SDS011;22559;54.176;12.102;2022-12-07T14:48:49;1.83;;;1.33;;
36551;SDS011;22559;54.176;12.102;2022-12-07T14:51:15;3.10;;;1.50;;
36551;SDS011;22559;54.176;12.102;2022-12-07T14:53:42;4.23;;;1.53;;
36551;SDS011;22559;54.176;12.102;2022-12-07T14:56:13;1.40;;;1.30;;
36551;SDS011;22559;54.176;12.102;2022-12-07T14:58:38;1.40;;;1.30;;
36551;SDS011;22559;54.176;12.102;2022-12-07T15:01:05;2.37;;;1.70;;
36551;SDS011;22559;54.176;12.102;2022-12-07T15:03:31;2.70;;;1.53;;
36551;SDS011;22559;54.176;12.102;2022-12-07T15:05:57;1.63;;;1.50;;
36551;SDS011;22559;54.176;12.102;2022-12-07T15:08:23;3.13;;;1.70;;
36551;SDS011;22559;54.176;12.102;2022-12-07T15:10:48;1.50;;;1.40;;
36551;SDS011;22559;54.176;12.102;2022-12-07T15:13:14;1.37;;;1.27;;
36551;SDS011;22559;54.176;12.102;2022-12-07T15:15:59;1.40;;;1.30;;
36551;SDS011;22559;54.176;12.102;2022-12-07T15:18:24;2.07;;;1.57;;
36551;SDS011;22559;54.176;12.102;2022-12-07T15:20:50;1.30;;;1.30;;
36551;SDS011;22559;54.176;12.102;2022-12-07T15:23:16;2.57;;;1.80;;
36551;SDS011;22559;54.176;12.102;2022-12-07T15:25:43;1.70;;;1.60;;
36551;SDS011;22559;54.176;12.102;2022-12-07T15:28:10;2.53;;;1.60;;
36551;SDS011;22559;54.176;12.102;2022-12-07T15:30:39;1.77;;;1.47;;
36551;SDS011;22559;54.176;12.102;2022-12-07T15:33:09;2.37;;;1.20;;
36551;SDS011;22559;54.176;12.102;2022-12-07T15:35:39;2.33;;;1.30;;
36551;SDS011;22559;54.176;12.102;2022-12-07T15:38:05;1.67;;;1.53;;
36551;SDS011;22559;54.176;12.102;2022-12-07T15:40:31;2.53;;;0.90;;
36551;SDS011;22559;54.176;12.102;2022-12-07T15:42:57;3.07;;;1.97;;
36551;SDS011;22559;54.176;12.102;2022-12-07T15:45:23;1.83;;;1.73;;
36551;SDS011;22559;54.176;12.102;2022-12-07T15:47:48;2.50;;;1.50;;
36551;SDS011;22559;54.176;12.102;2022-12-07T15:50:15;1.10;;;1.10;;
36551;SDS011;22559;54.176;12.102;2022-12-07T15:52:41;1.40;;;1.40;;
36551;SDS011;22559;54.176;12.102;2022-12-07T15:55:08;1.20;;;1.20;;
36551;SDS011;22559;54.176;12.102;2022-12-07T15:57:35;1.43;;;1.33;;
36551;SDS011;22559;54.176;12.102;2022-12-07T16:00:02;1.90;;;1.47;;
36551;SDS011;22559;54.176;12.102;2022-12-07T16:02:36;1.40;;;1.30;;
36551;SDS011;22559;54.176;12.102;2022-12-07T16:05:02;1.97;;;1.73;;
36551;SDS011;22559;54.176;12.102;2022-12-07T16:07:28;2.20;;;1.40;;
36551;SDS011;22559;54.176;12.102;2022-12-07T16:09:54;3.50;;;1.30;;
36551;SDS011;22559;54.176;12.102;2022-12-07T16:12:19;1.20;;;1.20;;
36551;SDS011;22559;54.176;12.102;2022-12-07T16:14:45;1.50;;;1.30;;
36551;SDS011;22559;54.176;12.102;2022-12-07T16:17:11;1.53;;;1.40;;
36551;SDS011;22559;54.176;12.102;2022-12-07T16:19:36;4.00;;;1.60;;
36551;SDS011;22559;54.176;12.102;2022-12-07T16:22:02;1.90;;;1.47;;
36551;SDS011;22559;54.176;12.102;2022-12-07T16:24:29;1.27;;;1.20;;
36551;SDS011;22559;54.176;12.102;2022-12-07T16:26:55;1.70;;;1.40;;
36551;SDS011;22559;54.176;12.102;2022-12-07T16:29:21;1.70;;;1.43;;
36551;SDS011;22559;54.176;12.102;2022-12-07T16:31:47;1.33;;;1.10;;
36551;SDS011;22559;54.176;12.102;2022-12-07T16:34:13;1.83;;;1.50;;
36551;SDS011;22559;54.176;12.102;2022-12-07T16:36:39;1.60;;;1.50;;
36551;SDS011;22559;54.176;12.102;2022-12-07T16:39:05;2.03;;;1.40;;
36551;SDS011;22559;54.176;12.102;2022-12-07T16:41:31;1.67;;;1.57;;
36551;SDS011;22559;54.176;12.102;2022-12-07T16:43:58;2.47;;;1.50;;
36551;SDS011;22559;54.176;12.102;2022-12-07T16:46:28;1.10;;;1.10;;